sensor_id;sensor_type;location;lat;lon;timestamp;P1;durP1;ratioP1;P2;durP2;ratioP2
3943;SDS011;1986;52.546;13.428;2022-10-18T00:00:46;11.10;;;10.80;;
3943;SDS011;1986;52.546;13.428;2022-10-18T00:03:15;11.00;;;10.70;;
3943;SDS011;1986;52.546;13.428;2022-10-18T00:05:42;11.10;;;10.80;;
3943;SDS011;1986;52.546;13.428;2022-10-18T00:08:09;11.10;;;10.80;;
3943;SDS011;1986;52.546;13.428;2022-10-18T00:10:35;10.97;;;10.67;;
3943;SDS011;1986;52.546;13.428;2022-10-18T00:13:04;11.10;;;10.80;;
3943;SDS011;1986;52.546;13.428;2022-10-18T00:15:31;11.50;;;11.20;;
3943;SDS011;1986;52.546;13.428;2022-10-18T00:17:58;11.30;;;11.00;;
3943;SDS011;1986;52.546;13.428;2022-10-18T00:20:25;11.10;;;10.80;;
3943;SDS011;1986;52.546;13.428;2022-10-18T00:22:52;11.10;;;10.80;;
3943;SDS011;1986;52.546;13.428;2022-10-18T00:25:19;11.30;;;11.00;;
3943;SDS011;1986;52.546;13.428;2022-10-18T00:27:46;10.90;;;10.60;;
3943;SDS011;1986;52.546;13.428;2022-10-18T00:30:14;11.37;;;11.07;;
3943;SDS011;1986;52.546;13.428;2022-10-18T00:32:41;10.80;;;10.50;;
3943;SDS011;1986;52.546;13.428;2022-10-18T00:35:08;10.50;;;10.20;;
3943;SDS011;1986;52.546;13.428;2022-10-18T00:37:35;11.70;;;11.30;;
3943;SDS011;1986;52.546;13.428;2022-10-18T00:40:02;11.43;;;11.03;;
3943;SDS011;1986;52.546;13.428;2022-10-18T00:42:31;10.20;;;9.90;;
3943;SDS011;1986;52.546;13.428;2022-10-18T00:47:44;11.00;;;10.60;;
3943;SDS011;1986;52.546;13.428;2022-10-18T00:50:13;11.70;;;11.00;;
3943;SDS011;1986;52.546;13.428;2022-10-18T00:52:41;10.45;;;10.15;;
3943;SDS011;1986;52.546;13.428;2022-10-18T00:55:12;12.33;;;11.07;;
3943;SDS011;1986;52.546;13.428;2022-10-18T00:57:39;9.87;;;9.57;;
3943;SDS011;1986;52.546;13.428;2022-10-18T01:00:08;9.10;;;8.90;;
3943;SDS011;1986;52.546;13.428;2022-10-18T01:02:39;9.40;;;9.20;;
3943;SDS011;1986;52.546;13.428;2022-10-18T01:05:10;9.83;;;9.53;;
3943;SDS011;1986;52.546;13.428;2022-10-18T01:07:52;8.90;;;8.70;;
3943;SDS011;1986;52.546;13.428;2022-10-18T01:10:40;9.07;;;8.87;;
3943;SDS011;1986;52.546;13.428;2022-10-18T01:13:21;9.47;;;9.27;;
3943;SDS011;1986;52.546;13.428;2022-10-18T01:15:58;8.97;;;8.77;;
3943;SDS011;1986;52.546;13.428;2022-10-18T01:18:36;12.33;;;10.50;;
3943;SDS011;1986;52.546;13.428;2022-10-18T01:21:08;10.90;;;10.33;;
3943;SDS011;1986;52.546;13.428;2022-10-18T01:26:48;8.53;;;8.33;;
3943;SDS011;1986;52.546;13.428;2022-10-18T01:29:36;8.10;;;8.00;;
3943;SDS011;1986;52.546;13.428;2022-10-18T01:32:20;9.53;;;9.20;;
3943;SDS011;1986;52.546;13.428;2022-10-18T01:34:54;8.97;;;8.60;;
3943;SDS011;1986;52.546;13.428;2022-10-18T01:37:24;10.97;;;10.37;;
3943;SDS011;1986;52.546;13.428;2022-10-18T01:39:53;8.30;;;8.10;;
3943;SDS011;1986;52.546;13.428;2022-10-18T01:42:22;9.37;;;9.03;;
3943;SDS011;1986;52.546;13.428;2022-10-18T01:44:51;8.50;;;8.30;;
3943;SDS011;1986;52.546;13.428;2022-10-18T01:47:20;10.67;;;10.27;;
3943;SDS011;1986;52.546;13.428;2022-10-18T01:49:54;8.23;;;8.10;;
3943;SDS011;1986;52.546;13.428;2022-10-18T01:52:23;9.40;;;8.77;;
3943;SDS011;1986;52.546;13.428;2022-10-18T01:54:50;8.60;;;8.40;;
3943;SDS011;1986;52.546;13.428;2022-10-18T01:57:20;10.20;;;9.80;;
3943;SDS011;1986;52.546;13.428;2022-10-18T01:59:54;8.90;;;8.70;;
3943;SDS011;1986;52.546;13.428;2022-10-18T02:02:29;8.40;;;8.20;;
3943;SDS011;1986;52.546;13.428;2022-10-18T02:05:08;9.63;;;9.33;;
3943;SDS011;1986;52.546;13.428;2022-10-18T02:07:45;8.60;;;8.40;;
3943;SDS011;1986;52.546;13.428;2022-10-18T02:10:17;10.00;;;9.70;;
3943;SDS011;1986;52.546;13.428;2022-10-18T02:12:51;10.53;;;10.03;;
3943;SDS011;1986;52.546;13.428;2022-10-18T02:15:22;11.30;;;10.40;;
3943;SDS011;1986;52.546;13.428;2022-10-18T02:17:54;9.13;;;8.53;;
3943;SDS011;1986;52.546;13.428;2022-10-18T02:20:22;7.83;;;7.73;;
3943;SDS011;1986;52.546;13.428;2022-10-18T02:22:51;9.40;;;9.20;;
3943;SDS011;1986;52.546;13.428;2022-10-18T02:25:21;10.97;;;9.73;;
3943;SDS011;1986;52.546;13.428;2022-10-18T02:27:52;9.50;;;9.20;;
3943;SDS011;1986;52.546;13.428;2022-10-18T02:30:19;8.80;;;8.50;;
3943;SDS011;1986;52.546;13.428;2022-10-18T02:32:55;10.10;;;9.50;;
3943;SDS011;1986;52.546;13.428;2022-10-18T02:35:29;9.00;;;8.80;;
3943;SDS011;1986;52.546;13.428;2022-10-18T02:38:00;7.30;;;7.20;;
3943;SDS011;1986;52.546;13.428;2022-10-18T02:40:30;7.90;;;7.80;;
3943;SDS011;1986;52.546;13.428;2022-10-18T02:42:57;8.53;;;8.23;;
3943;SDS011;1986;52.546;13.428;2022-10-18T02:45:26;9.97;;;9.57;;
3943;SDS011;1986;52.546;13.428;2022-10-18T02:47:53;7.83;;;7.43;;
3943;SDS011;1986;52.546;13.428;2022-10-18T02:50:22;7.40;;;7.30;;
3943;SDS011;1986;52.546;13.428;2022-10-18T02:52:48;7.80;;;7.60;;
3943;SDS011;1986;52.546;13.428;2022-10-18T02:55:15;8.53;;;8.13;;
3943;SDS011;1986;52.546;13.428;2022-10-18T02:57:42;13.67;;;9.80;;
3943;SDS011;1986;52.546;13.428;2022-10-18T03:00:10;7.30;;;7.10;;
3943;SDS011;1986;52.546;13.428;2022-10-18T03:02:37;10.60;;;9.90;;
3943;SDS011;1986;52.546;13.428;2022-10-18T03:05:05;6.87;;;6.77;;
3943;SDS011;1986;52.546;13.428;2022-10-18T03:07:33;6.97;;;6.77;;
3943;SDS011;1986;52.546;13.428;2022-10-18T03:10:01;8.77;;;8.37;;
3943;SDS011;1986;52.546;13.428;2022-10-18T03:12:28;6.40;;;6.30;;
3943;SDS011;1986;52.546;13.428;2022-10-18T03:14:55;7.63;;;7.33;;
3943;SDS011;1986;52.546;13.428;2022-10-18T03:17:22;7.33;;;7.13;;
3943;SDS011;1986;52.546;13.428;2022-10-18T03:19:52;7.90;;;7.70;;
3943;SDS011;1986;52.546;13.428;2022-10-18T03:22:20;8.60;;;8.20;;
3943;SDS011;1986;52.546;13.428;2022-10-18T03:24:52;7.80;;;7.60;;
3943;SDS011;1986;52.546;13.428;2022-10-18T03:27:18;9.33;;;8.90;;
3943;SDS011;1986;52.546;13.428;2022-10-18T03:29:46;9.13;;;8.63;;
3943;SDS011;1986;52.546;13.428;2022-10-18T03:32:12;7.83;;;7.43;;
3943;SDS011;1986;52.546;13.428;2022-10-18T03:34:44;8.90;;;8.40;;
3943;SDS011;1986;52.546;13.428;2022-10-18T03:37:12;7.73;;;7.27;;
3943;SDS011;1986;52.546;13.428;2022-10-18T03:39:43;5.97;;;5.87;;
3943;SDS011;1986;52.546;13.428;2022-10-18T03:42:12;8.30;;;8.03;;
3943;SDS011;1986;52.546;13.428;2022-10-18T03:44:42;6.50;;;6.33;;
3943;SDS011;1986;52.546;13.428;2022-10-18T03:47:09;7.20;;;7.00;;
3943;SDS011;1986;52.546;13.428;2022-10-18T03:49:36;5.30;;;5.20;;
3943;SDS011;1986;52.546;13.428;2022-10-18T03:52:03;9.57;;;8.90;;
3943;SDS011;1986;52.546;13.428;2022-10-18T03:54:30;8.63;;;8.40;;
3943;SDS011;1986;52.546;13.428;2022-10-18T03:56:58;11.10;;;10.70;;
3943;SDS011;1986;52.546;13.428;2022-10-18T03:59:25;12.00;;;11.60;;
3943;SDS011;1986;52.546;13.428;2022-10-18T04:01:55;11.87;;;11.57;;
3943;SDS011;1986;52.546;13.428;2022-10-18T04:04:22;11.27;;;10.97;;
3943;SDS011;1986;52.546;13.428;2022-10-18T04:06:48;12.47;;;12.03;;
3943;SDS011;1986;52.546;13.428;2022-10-18T04:09:17;13.83;;;12.73;;
3943;SDS011;1986;52.546;13.428;2022-10-18T04:11:44;11.03;;;10.77;;
3943;SDS011;1986;52.546;13.428;2022-10-18T04:14:23;13.27;;;12.37;;
3943;SDS011;1986;52.546;13.428;2022-10-18T04:16:50;11.33;;;11.00;;
3943;SDS011;1986;52.546;13.428;2022-10-18T04:19:19;11.00;;;10.50;;
3943;SDS011;1986;52.546;13.428;2022-10-18T04:21:46;10.50;;;10.20;;
3943;SDS011;1986;52.546;13.428;2022-10-18T04:24:13;9.00;;;8.80;;
3943;SDS011;1986;52.546;13.428;2022-10-18T04:26:47;11.83;;;11.43;;
3943;SDS011;1986;52.546;13.428;2022-10-18T04:29:15;10.00;;;9.80;;
3943;SDS011;1986;52.546;13.428;2022-10-18T04:31:43;12.70;;;12.17;;
3943;SDS011;1986;52.546;13.428;2022-10-18T04:34:10;10.93;;;10.63;;
3943;SDS011;1986;52.546;13.428;2022-10-18T04:36:37;13.57;;;13.17;;
3943;SDS011;1986;52.546;13.428;2022-10-18T04:39:06;12.37;;;12.03;;
3943;SDS011;1986;52.546;13.428;2022-10-18T04:41:33;14.67;;;13.97;;
3943;SDS011;1986;52.546;13.428;2022-10-18T04:44:03;12.63;;;12.30;;
3943;SDS011;1986;52.546;13.428;2022-10-18T04:46:29;12.60;;;12.30;;
3943;SDS011;1986;52.546;13.428;2022-10-18T04:48:58;12.90;;;12.43;;
3943;SDS011;1986;52.546;13.428;2022-10-18T04:51:25;12.80;;;12.50;;
3943;SDS011;1986;52.546;13.428;2022-10-18T04:53:52;13.83;;;13.43;;
3943;SDS011;1986;52.546;13.428;2022-10-18T04:56:23;14.10;;;13.70;;
3943;SDS011;1986;52.546;13.428;2022-10-18T04:58:58;13.63;;;13.23;;
3943;SDS011;1986;52.546;13.428;2022-10-18T05:01:28;15.10;;;14.60;;
3943;SDS011;1986;52.546;13.428;2022-10-18T05:03:56;16.20;;;15.60;;
3943;SDS011;1986;52.546;13.428;2022-10-18T05:06:28;17.03;;;16.37;;
3943;SDS011;1986;52.546;13.428;2022-10-18T05:08:55;17.57;;;16.87;;
3943;SDS011;1986;52.546;13.428;2022-10-18T05:11:23;16.93;;;16.33;;
3943;SDS011;1986;52.546;13.428;2022-10-18T05:13:50;23.53;;;22.33;;
3943;SDS011;1986;52.546;13.428;2022-10-18T05:16:17;22.73;;;21.60;;
3943;SDS011;1986;52.546;13.428;2022-10-18T05:18:46;22.07;;;21.07;;
3943;SDS011;1986;52.546;13.428;2022-10-18T05:21:14;22.00;;;21.00;;
3943;SDS011;1986;52.546;13.428;2022-10-18T05:23:42;22.63;;;21.63;;
3943;SDS011;1986;52.546;13.428;2022-10-18T05:26:08;25.47;;;24.07;;
3943;SDS011;1986;52.546;13.428;2022-10-18T05:28:36;26.50;;;25.00;;
3943;SDS011;1986;52.546;13.428;2022-10-18T05:31:03;26.30;;;24.70;;
3943;SDS011;1986;52.546;13.428;2022-10-18T05:33:31;27.40;;;25.60;;
3943;SDS011;1986;52.546;13.428;2022-10-18T05:35:58;27.53;;;25.73;;
3943;SDS011;1986;52.546;13.428;2022-10-18T05:38:28;28.90;;;26.90;;
3943;SDS011;1986;52.546;13.428;2022-10-18T05:40:56;27.70;;;25.70;;
3943;SDS011;1986;52.546;13.428;2022-10-18T05:43:25;27.73;;;25.83;;
3943;SDS011;1986;52.546;13.428;2022-10-18T05:45:52;27.93;;;25.93;;
3943;SDS011;1986;52.546;13.428;2022-10-18T05:48:19;29.20;;;26.93;;
3943;SDS011;1986;52.546;13.428;2022-10-18T05:50:47;30.00;;;28.00;;
3943;SDS011;1986;52.546;13.428;2022-10-18T05:53:14;29.90;;;27.83;;
3943;SDS011;1986;52.546;13.428;2022-10-18T05:55:44;28.43;;;26.43;;
3943;SDS011;1986;52.546;13.428;2022-10-18T05:58:13;28.03;;;26.07;;
3943;SDS011;1986;52.546;13.428;2022-10-18T06:00:40;26.93;;;25.13;;
3943;SDS011;1986;52.546;13.428;2022-10-18T06:03:09;27.90;;;25.90;;
3943;SDS011;1986;52.546;13.428;2022-10-18T06:05:36;25.80;;;24.00;;
3943;SDS011;1986;52.546;13.428;2022-10-18T06:08:03;26.73;;;24.87;;
3943;SDS011;1986;52.546;13.428;2022-10-18T06:10:30;28.87;;;26.73;;
3943;SDS011;1986;52.546;13.428;2022-10-18T06:12:58;27.10;;;25.20;;
3943;SDS011;1986;52.546;13.428;2022-10-18T06:15:28;28.30;;;26.40;;
3943;SDS011;1986;52.546;13.428;2022-10-18T06:17:55;27.13;;;25.23;;
3943;SDS011;1986;52.546;13.428;2022-10-18T06:20:24;28.63;;;26.53;;
3943;SDS011;1986;52.546;13.428;2022-10-18T06:22:51;29.00;;;27.00;;
3943;SDS011;1986;52.546;13.428;2022-10-18T06:25:21;30.30;;;28.20;;
3943;SDS011;1986;52.546;13.428;2022-10-18T06:27:48;29.50;;;27.30;;
3943;SDS011;1986;52.546;13.428;2022-10-18T06:30:17;30.37;;;27.97;;
3943;SDS011;1986;52.546;13.428;2022-10-18T06:32:44;28.13;;;26.03;;
3943;SDS011;1986;52.546;13.428;2022-10-18T06:35:11;28.97;;;26.77;;
3943;SDS011;1986;52.546;13.428;2022-10-18T06:37:40;28.80;;;26.60;;
3943;SDS011;1986;52.546;13.428;2022-10-18T06:40:14;33.53;;;31.13;;
3943;SDS011;1986;52.546;13.428;2022-10-18T06:42:41;28.67;;;26.57;;
3943;SDS011;1986;52.546;13.428;2022-10-18T06:45:08;29.03;;;26.83;;
3943;SDS011;1986;52.546;13.428;2022-10-18T06:47:36;29.07;;;26.77;;
3943;SDS011;1986;52.546;13.428;2022-10-18T06:50:04;28.40;;;26.30;;
3943;SDS011;1986;52.546;13.428;2022-10-18T06:52:31;28.30;;;26.20;;
3943;SDS011;1986;52.546;13.428;2022-10-18T06:54:58;28.43;;;26.33;;
3943;SDS011;1986;52.546;13.428;2022-10-18T06:57:25;28.90;;;26.70;;
3943;SDS011;1986;52.546;13.428;2022-10-18T06:59:51;28.40;;;26.30;;
3943;SDS011;1986;52.546;13.428;2022-10-18T07:02:18;30.50;;;28.20;;
3943;SDS011;1986;52.546;13.428;2022-10-18T07:04:48;28.80;;;26.70;;
3943;SDS011;1986;52.546;13.428;2022-10-18T07:07:14;28.30;;;26.20;;
3943;SDS011;1986;52.546;13.428;2022-10-18T07:09:41;27.40;;;25.50;;
3943;SDS011;1986;52.546;13.428;2022-10-18T07:12:10;26.10;;;24.30;;
3943;SDS011;1986;52.546;13.428;2022-10-18T07:14:39;26.97;;;25.07;;
3943;SDS011;1986;52.546;13.428;2022-10-18T07:17:06;26.87;;;25.00;;
3943;SDS011;1986;52.546;13.428;2022-10-18T07:19:33;26.50;;;24.70;;
3943;SDS011;1986;52.546;13.428;2022-10-18T07:22:01;27.90;;;25.80;;
3943;SDS011;1986;52.546;13.428;2022-10-18T07:24:28;26.90;;;25.00;;
3943;SDS011;1986;52.546;13.428;2022-10-18T07:26:55;26.87;;;25.07;;
3943;SDS011;1986;52.546;13.428;2022-10-18T07:29:22;25.87;;;24.07;;
3943;SDS011;1986;52.546;13.428;2022-10-18T07:31:48;27.00;;;25.10;;
3943;SDS011;1986;52.546;13.428;2022-10-18T07:34:15;27.23;;;25.33;;
3943;SDS011;1986;52.546;13.428;2022-10-18T07:36:42;28.20;;;26.20;;
3943;SDS011;1986;52.546;13.428;2022-10-18T07:39:10;29.50;;;27.40;;
3943;SDS011;1986;52.546;13.428;2022-10-18T07:41:37;28.57;;;26.47;;
3943;SDS011;1986;52.546;13.428;2022-10-18T07:44:04;30.10;;;27.80;;
3943;SDS011;1986;52.546;13.428;2022-10-18T07:46:31;30.53;;;28.17;;
3943;SDS011;1986;52.546;13.428;2022-10-18T07:48:58;29.07;;;26.57;;
3943;SDS011;1986;52.546;13.428;2022-10-18T07:51:25;31.37;;;28.33;;
3943;SDS011;1986;52.546;13.428;2022-10-18T07:53:52;31.40;;;28.80;;
3943;SDS011;1986;52.546;13.428;2022-10-18T07:56:20;29.53;;;27.33;;
3943;SDS011;1986;52.546;13.428;2022-10-18T07:58:48;31.43;;;28.67;;
3943;SDS011;1986;52.546;13.428;2022-10-18T08:01:17;29.43;;;27.33;;
3943;SDS011;1986;52.546;13.428;2022-10-18T08:03:45;28.10;;;26.10;;
3943;SDS011;1986;52.546;13.428;2022-10-18T08:06:13;28.00;;;26.00;;
3943;SDS011;1986;52.546;13.428;2022-10-18T08:08:42;29.43;;;27.23;;
3943;SDS011;1986;52.546;13.428;2022-10-18T08:11:11;29.20;;;27.10;;
3943;SDS011;1986;52.546;13.428;2022-10-18T08:13:41;28.40;;;26.30;;
3943;SDS011;1986;52.546;13.428;2022-10-18T08:16:09;29.60;;;27.40;;
3943;SDS011;1986;52.546;13.428;2022-10-18T08:18:37;31.73;;;29.23;;
3943;SDS011;1986;52.546;13.428;2022-10-18T08:21:04;29.07;;;26.97;;
3943;SDS011;1986;52.546;13.428;2022-10-18T08:23:33;28.73;;;26.60;;
3943;SDS011;1986;52.546;13.428;2022-10-18T08:26:00;28.97;;;26.87;;
3943;SDS011;1986;52.546;13.428;2022-10-18T08:28:28;29.53;;;27.33;;
3943;SDS011;1986;52.546;13.428;2022-10-18T08:30:57;31.60;;;29.20;;
3943;SDS011;1986;52.546;13.428;2022-10-18T08:33:28;29.23;;;27.03;;
3943;SDS011;1986;52.546;13.428;2022-10-18T08:35:55;28.03;;;25.93;;
3943;SDS011;1986;52.546;13.428;2022-10-18T08:38:23;22.77;;;21.20;;
3943;SDS011;1986;52.546;13.428;2022-10-18T08:40:50;24.10;;;22.40;;
3943;SDS011;1986;52.546;13.428;2022-10-18T08:43:20;25.10;;;23.30;;
3943;SDS011;1986;52.546;13.428;2022-10-18T08:45:58;26.43;;;24.47;;
3943;SDS011;1986;52.546;13.428;2022-10-18T08:48:30;26.60;;;24.30;;
3943;SDS011;1986;52.546;13.428;2022-10-18T08:51:00;24.67;;;22.87;;
3943;SDS011;1986;52.546;13.428;2022-10-18T08:53:31;26.00;;;24.10;;
3943;SDS011;1986;52.546;13.428;2022-10-18T08:56:02;26.93;;;24.63;;
3943;SDS011;1986;52.546;13.428;2022-10-18T08:58:35;27.60;;;25.20;;
3943;SDS011;1986;52.546;13.428;2022-10-18T09:01:07;26.77;;;24.67;;
3943;SDS011;1986;52.546;13.428;2022-10-18T09:03:53;25.90;;;23.90;;
3943;SDS011;1986;52.546;13.428;2022-10-18T09:06:33;26.93;;;24.17;;
3943;SDS011;1986;52.546;13.428;2022-10-18T09:09:07;27.17;;;24.97;;
3943;SDS011;1986;52.546;13.428;2022-10-18T09:11:53;25.40;;;23.57;;
3943;SDS011;1986;52.546;13.428;2022-10-18T09:14:42;25.80;;;23.77;;
3943;SDS011;1986;52.546;13.428;2022-10-18T09:17:25;26.03;;;24.20;;
3943;SDS011;1986;52.546;13.428;2022-10-18T09:20:01;24.87;;;22.93;;
3943;SDS011;1986;52.546;13.428;2022-10-18T09:22:42;24.03;;;22.30;;
3943;SDS011;1986;52.546;13.428;2022-10-18T09:25:20;23.70;;;22.00;;
3943;SDS011;1986;52.546;13.428;2022-10-18T09:27:52;24.30;;;22.60;;
3943;SDS011;1986;52.546;13.428;2022-10-18T09:36:00;23.87;;;22.20;;
3943;SDS011;1986;52.546;13.428;2022-10-18T09:38:30;26.90;;;25.00;;
3943;SDS011;1986;52.546;13.428;2022-10-18T09:41:02;24.53;;;22.83;;
3943;SDS011;1986;52.546;13.428;2022-10-18T09:43:37;24.50;;;22.70;;
3943;SDS011;1986;52.546;13.428;2022-10-18T09:46:10;24.30;;;22.60;;
3943;SDS011;1986;52.546;13.428;2022-10-18T09:48:42;25.33;;;23.63;;
3943;SDS011;1986;52.546;13.428;2022-10-18T09:51:14;24.17;;;22.47;;
3943;SDS011;1986;52.546;13.428;2022-10-18T09:53:49;24.20;;;22.50;;
3943;SDS011;1986;52.546;13.428;2022-10-18T09:56:25;27.90;;;23.83;;
3943;SDS011;1986;52.546;13.428;2022-10-18T09:58:55;25.67;;;23.20;;
3943;SDS011;1986;52.546;13.428;2022-10-18T10:01:23;24.17;;;22.47;;
3943;SDS011;1986;52.546;13.428;2022-10-18T10:03:53;25.60;;;23.70;;
3943;SDS011;1986;52.546;13.428;2022-10-18T10:06:24;23.83;;;21.83;;
3943;SDS011;1986;52.546;13.428;2022-10-18T10:08:53;22.80;;;21.20;;
3943;SDS011;1986;52.546;13.428;2022-10-18T10:11:27;24.37;;;22.47;;
3943;SDS011;1986;52.546;13.428;2022-10-18T10:13:56;25.47;;;23.67;;
3943;SDS011;1986;52.546;13.428;2022-10-18T10:16:32;22.43;;;21.00;;
3943;SDS011;1986;52.546;13.428;2022-10-18T10:19:18;24.00;;;22.13;;
3943;SDS011;1986;52.546;13.428;2022-10-18T10:21:50;23.60;;;21.90;;
3943;SDS011;1986;52.546;13.428;2022-10-18T10:24:23;23.43;;;21.70;;
3943;SDS011;1986;52.546;13.428;2022-10-18T10:26:57;23.17;;;21.53;;
3943;SDS011;1986;52.546;13.428;2022-10-18T10:29:39;22.47;;;21.07;;
3943;SDS011;1986;52.546;13.428;2022-10-18T10:32:16;23.43;;;21.77;;
3943;SDS011;1986;52.546;13.428;2022-10-18T10:34:45;22.30;;;20.80;;
3943;SDS011;1986;52.546;13.428;2022-10-18T10:37:25;22.27;;;20.80;;
3943;SDS011;1986;52.546;13.428;2022-10-18T10:40:03;30.67;;;22.00;;
3943;SDS011;1986;52.546;13.428;2022-10-18T10:42:53;22.10;;;20.60;;
3943;SDS011;1986;52.546;13.428;2022-10-18T10:45:26;23.47;;;21.40;;
3943;SDS011;1986;52.546;13.428;2022-10-18T10:48:00;24.57;;;22.43;;
3943;SDS011;1986;52.546;13.428;2022-10-18T10:50:46;22.93;;;21.33;;
3943;SDS011;1986;52.546;13.428;2022-10-18T10:53:32;23.03;;;21.33;;
3943;SDS011;1986;52.546;13.428;2022-10-18T10:56:03;23.87;;;21.80;;
3943;SDS011;1986;52.546;13.428;2022-10-18T10:58:33;21.90;;;20.40;;
3943;SDS011;1986;52.546;13.428;2022-10-18T11:01:19;22.60;;;21.00;;
3943;SDS011;1986;52.546;13.428;2022-10-18T11:03:51;24.93;;;23.13;;
3943;SDS011;1986;52.546;13.428;2022-10-18T11:06:29;22.93;;;21.33;;
3943;SDS011;1986;52.546;13.428;2022-10-18T11:09:15;24.00;;;22.40;;
3943;SDS011;1986;52.546;13.428;2022-10-18T11:11:54;25.37;;;23.57;;
3943;SDS011;1986;52.546;13.428;2022-10-18T11:14:28;25.77;;;23.60;;
3943;SDS011;1986;52.546;13.428;2022-10-18T11:17:01;25.03;;;22.90;;
3943;SDS011;1986;52.546;13.428;2022-10-18T11:19:37;26.10;;;24.23;;
3943;SDS011;1986;52.546;13.428;2022-10-18T11:22:13;23.40;;;21.80;;
3943;SDS011;1986;52.546;13.428;2022-10-18T11:24:43;24.60;;;22.50;;
3943;SDS011;1986;52.546;13.428;2022-10-18T11:27:12;24.00;;;22.40;;
3943;SDS011;1986;52.546;13.428;2022-10-18T11:29:48;22.33;;;20.93;;
3943;SDS011;1986;52.546;13.428;2022-10-18T11:32:24;23.80;;;22.00;;
3943;SDS011;1986;52.546;13.428;2022-10-18T11:35:01;22.23;;;20.73;;
3943;SDS011;1986;52.546;13.428;2022-10-18T11:37:48;26.23;;;24.40;;
3943;SDS011;1986;52.546;13.428;2022-10-18T11:40:31;24.57;;;22.60;;
3943;SDS011;1986;52.546;13.428;2022-10-18T11:43:11;24.90;;;23.10;;
3943;SDS011;1986;52.546;13.428;2022-10-18T11:45:47;23.20;;;21.60;;
3943;SDS011;1986;52.546;13.428;2022-10-18T11:51:09;23.50;;;22.00;;
3943;SDS011;1986;52.546;13.428;2022-10-18T11:53:49;22.00;;;20.60;;
3943;SDS011;1986;52.546;13.428;2022-10-18T11:56:41;23.47;;;21.97;;
3943;SDS011;1986;52.546;13.428;2022-10-18T11:59:16;25.60;;;23.80;;
3943;SDS011;1986;52.546;13.428;2022-10-18T12:01:54;28.77;;;25.97;;
3943;SDS011;1986;52.546;13.428;2022-10-18T12:04:30;23.43;;;22.03;;
3943;SDS011;1986;52.546;13.428;2022-10-18T12:07:03;22.83;;;21.53;;
3943;SDS011;1986;52.546;13.428;2022-10-18T12:09:36;26.20;;;24.30;;
3943;SDS011;1986;52.546;13.428;2022-10-18T12:12:06;24.00;;;22.30;;
3943;SDS011;1986;52.546;13.428;2022-10-18T12:14:37;24.97;;;23.13;;
3943;SDS011;1986;52.546;13.428;2022-10-18T12:17:11;24.37;;;22.83;;
3943;SDS011;1986;52.546;13.428;2022-10-18T12:19:45;25.47;;;23.67;;
3943;SDS011;1986;52.546;13.428;2022-10-18T12:22:17;22.67;;;21.37;;
3943;SDS011;1986;52.546;13.428;2022-10-18T12:24:49;26.37;;;24.63;;
3943;SDS011;1986;52.546;13.428;2022-10-18T12:27:16;23.10;;;21.70;;
3943;SDS011;1986;52.546;13.428;2022-10-18T12:29:48;23.87;;;22.23;;
3943;SDS011;1986;52.546;13.428;2022-10-18T12:32:19;22.27;;;20.97;;
3943;SDS011;1986;52.546;13.428;2022-10-18T12:34:52;23.67;;;22.27;;
3943;SDS011;1986;52.546;13.428;2022-10-18T12:40:30;25.27;;;23.77;;
3943;SDS011;1986;52.546;13.428;2022-10-18T12:43:05;23.90;;;22.50;;
3943;SDS011;1986;52.546;13.428;2022-10-18T12:45:34;23.07;;;21.67;;
3943;SDS011;1986;52.546;13.428;2022-10-18T12:48:24;24.83;;;23.23;;
3943;SDS011;1986;52.546;13.428;2022-10-18T12:50:56;22.80;;;21.40;;
3943;SDS011;1986;52.546;13.428;2022-10-18T12:53:25;23.10;;;21.80;;
3943;SDS011;1986;52.546;13.428;2022-10-18T12:55:54;23.10;;;21.77;;
3943;SDS011;1986;52.546;13.428;2022-10-18T13:02:18;25.07;;;22.77;;
3943;SDS011;1986;52.546;13.428;2022-10-18T13:04:56;22.20;;;21.10;;
3943;SDS011;1986;52.546;13.428;2022-10-18T13:07:37;24.57;;;23.27;;
3943;SDS011;1986;52.546;13.428;2022-10-18T13:15:56;22.87;;;21.67;;
3943;SDS011;1986;52.546;13.428;2022-10-18T13:18:30;27.27;;;25.33;;
3943;SDS011;1986;52.546;13.428;2022-10-18T13:21:08;28.03;;;25.90;;
3943;SDS011;1986;52.546;13.428;2022-10-18T13:23:47;25.80;;;23.50;;
3943;SDS011;1986;52.546;13.428;2022-10-18T13:26:30;23.93;;;22.60;;
3943;SDS011;1986;52.546;13.428;2022-10-18T13:29:22;23.87;;;22.73;;
3943;SDS011;1986;52.546;13.428;2022-10-18T13:31:59;26.47;;;24.50;;
3943;SDS011;1986;52.546;13.428;2022-10-18T13:34:39;25.80;;;24.13;;
3943;SDS011;1986;52.546;13.428;2022-10-18T13:37:17;23.50;;;21.93;;
3943;SDS011;1986;52.546;13.428;2022-10-18T13:39:48;24.57;;;22.67;;
3943;SDS011;1986;52.546;13.428;2022-10-18T13:42:31;21.23;;;20.13;;
3943;SDS011;1986;52.546;13.428;2022-10-18T13:51:11;12.83;;;12.53;;
3943;SDS011;1986;52.546;13.428;2022-10-18T13:53:57;14.30;;;12.90;;
3943;SDS011;1986;52.546;13.428;2022-10-18T13:59:39;14.50;;;10.10;;
3943;SDS011;1986;52.546;13.428;2022-10-18T14:02:29;7.40;;;6.80;;
3943;SDS011;1986;52.546;13.428;2022-10-18T14:08:16;3.50;;;3.40;;
3943;SDS011;1986;52.546;13.428;2022-10-18T14:10:49;6.23;;;5.83;;
3943;SDS011;1986;52.546;13.428;2022-10-18T14:13:23;4.97;;;4.67;;
3943;SDS011;1986;52.546;13.428;2022-10-18T14:15:55;7.63;;;6.93;;
3943;SDS011;1986;52.546;13.428;2022-10-18T14:18:25;4.60;;;4.30;;
3943;SDS011;1986;52.546;13.428;2022-10-18T14:20:57;3.90;;;3.80;;
3943;SDS011;1986;52.546;13.428;2022-10-18T14:23:28;5.27;;;4.77;;
3943;SDS011;1986;52.546;13.428;2022-10-18T14:26:05;22.73;;;7.67;;
3943;SDS011;1986;52.546;13.428;2022-10-18T14:28:33;8.07;;;7.20;;
3943;SDS011;1986;52.546;13.428;2022-10-18T14:31:00;8.33;;;7.83;;
3943;SDS011;1986;52.546;13.428;2022-10-18T14:33:31;10.30;;;9.30;;
3943;SDS011;1986;52.546;13.428;2022-10-18T14:36:02;9.20;;;8.50;;
3943;SDS011;1986;52.546;13.428;2022-10-18T14:38:34;5.20;;;5.10;;
3943;SDS011;1986;52.546;13.428;2022-10-18T14:41:03;6.80;;;6.30;;
3943;SDS011;1986;52.546;13.428;2022-10-18T14:43:31;7.43;;;7.13;;
3943;SDS011;1986;52.546;13.428;2022-10-18T14:46:07;7.13;;;6.83;;
3943;SDS011;1986;52.546;13.428;2022-10-18T14:48:34;13.10;;;8.30;;
3943;SDS011;1986;52.546;13.428;2022-10-18T14:51:01;8.60;;;7.90;;
3943;SDS011;1986;52.546;13.428;2022-10-18T14:53:33;9.40;;;8.90;;
3943;SDS011;1986;52.546;13.428;2022-10-18T14:56:04;12.67;;;11.40;;
3943;SDS011;1986;52.546;13.428;2022-10-18T14:58:33;8.20;;;7.80;;
3943;SDS011;1986;52.546;13.428;2022-10-18T15:01:03;6.93;;;6.73;;
3943;SDS011;1986;52.546;13.428;2022-10-18T15:03:31;7.07;;;6.90;;
3943;SDS011;1986;52.546;13.428;2022-10-18T15:06:01;10.67;;;9.90;;
3943;SDS011;1986;52.546;13.428;2022-10-18T15:08:35;7.60;;;7.30;;
3943;SDS011;1986;52.546;13.428;2022-10-18T15:11:07;8.90;;;8.40;;
3943;SDS011;1986;52.546;13.428;2022-10-18T15:13:37;7.90;;;7.63;;
3943;SDS011;1986;52.546;13.428;2022-10-18T15:16:14;8.27;;;7.93;;
3943;SDS011;1986;52.546;13.428;2022-10-18T15:18:42;10.43;;;9.93;;
3943;SDS011;1986;52.546;13.428;2022-10-18T15:21:25;9.30;;;9.00;;
3943;SDS011;1986;52.546;13.428;2022-10-18T15:23:56;9.10;;;8.60;;
3943;SDS011;1986;52.546;13.428;2022-10-18T15:26:44;10.20;;;9.17;;
3943;SDS011;1986;52.546;13.428;2022-10-18T15:29:14;10.50;;;10.10;;
3943;SDS011;1986;52.546;13.428;2022-10-18T15:31:43;11.40;;;10.70;;
3943;SDS011;1986;52.546;13.428;2022-10-18T15:34:13;9.43;;;9.17;;
3943;SDS011;1986;52.546;13.428;2022-10-18T15:36:44;9.93;;;9.63;;
3943;SDS011;1986;52.546;13.428;2022-10-18T15:39:16;11.17;;;10.17;;
3943;SDS011;1986;52.546;13.428;2022-10-18T15:41:45;12.13;;;10.83;;
3943;SDS011;1986;52.546;13.428;2022-10-18T15:44:18;12.37;;;11.43;;